Terminal Aerodrome Forecast
Issued by NWS Melbourne, FL

Home | Current Version | Previous Version | Text Only | Print | Product List | Glossary On
Versions: 1 2 3 4 5 6 7 8 9 10 11 12 13 14 15 16 17 18 19 20 21
000
FTUS42 KMLB 051737
TAFDAB
TAF
KDAB 051737Z 0518/0618 22011G17KT P6SM SCT030 SCT040
     FM060000 25004KT P6SM SCT025 BKN050
     FM060700 35010KT P6SM VCSH SCT007 BKN015 OVC035=

USA.gov is the U.S. government's official web portal to all federal, state and local government web resources and services.